AUA62 LIMC-LOWW
Flight info
| Callsign | AUA62 |
|---|---|
| Flight time | 1h 8m |
| Altitude | 34000 |
| Route | OSKOR DCT NESTI DCT ARALD/N0428F330 DCT ABTAN ABTAN2W |
| Aircraft | A320/M-SDE3FGHIRWY/LB1 |
Departure
| Time | 2026-05-05 21:43 |
|---|---|
| Airport | Milan Malpensa International Airport (LIMC) |
Arrival
| Time | 2026-05-05 22:52 |
|---|---|
| Airport | Vienna International Airport (LOWW) |
| Time | Latitude | Longitude | Altitude | Speed | Heading |
|---|---|---|---|---|---|
| 2026-05-05 20:32 | 45.63015 | 8.71472 | 753 ft | 0 kts | 349° |
| 2026-05-05 20:52 | 45.63014 | 8.71472 | 752 ft | 0 kts | 349° |
| 2026-05-05 21:04 | 45.63014 | 8.71473 | 752 ft | 0 kts | 349° |
| 2026-05-05 21:12 | 45.63004 | 8.71475 | 751 ft | 3 kts | 349° |
| 2026-05-05 21:13 | 45.62983 | 8.71481 | 752 ft | 3 kts | 349° |
| 2026-05-05 21:13 | 45.62967 | 8.71486 | 751 ft | 3 kts | 351° |
| 2026-05-05 21:13 | 45.62948 | 8.71487 | 748 ft | 3 kts | 22° |
| 2026-05-05 21:13 | 45.62933 | 8.71472 | 751 ft | 3 kts | 59° |
| 2026-05-05 21:14 | 45.62926 | 8.71447 | 749 ft | 2 kts | 79° |
| 2026-05-05 21:14 | 45.62924 | 8.71435 | 751 ft | 1 kts | 81° |
| 2026-05-05 21:14 | 45.62924 | 8.71433 | 751 ft | 1 kts | 81° |
| 2026-05-05 21:16 | 45.62925 | 8.71442 | 749 ft | 6 kts | 81° |
| 2026-05-05 21:17 | 45.62946 | 8.71608 | 748 ft | 20 kts | 79° |
| 2026-05-05 21:17 | 45.62958 | 8.71723 | 750 ft | 8 kts | 92° |
| 2026-05-05 21:17 | 45.62970 | 8.71795 | 752 ft | 10 kts | 77° |
| 2026-05-05 21:17 | 45.62981 | 8.71910 | 752 ft | 11 kts | 101° |
| 2026-05-05 21:18 | 45.62926 | 8.71954 | 750 ft | 9 kts | 169° |
| 2026-05-05 21:18 | 45.62867 | 8.71970 | 750 ft | 11 kts | 169° |
| 2026-05-05 21:18 | 45.62705 | 8.72015 | 752 ft | 33 kts | 169° |
| 2026-05-05 21:18 | 45.62472 | 8.72080 | 751 ft | 34 kts | 169° |
| 2026-05-05 21:19 | 45.62264 | 8.72137 | 752 ft | 30 kts | 169° |
| 2026-05-05 21:19 | 45.62053 | 8.72195 | 752 ft | 31 kts | 169° |
| 2026-05-05 21:19 | 45.61869 | 8.72244 | 751 ft | 22 kts | 170° |
| 2026-05-05 21:19 | 45.61710 | 8.72290 | 751 ft | 24 kts | 169° |
| 2026-05-05 21:20 | 45.61539 | 8.72337 | 750 ft | 26 kts | 170° |
| 2026-05-05 21:20 | 45.61406 | 8.72353 | 749 ft | 13 kts | 214° |
| 2026-05-05 21:20 | 45.61380 | 8.72240 | 752 ft | 12 kts | 259° |
| 2026-05-05 21:20 | 45.61322 | 8.72197 | 749 ft | 12 kts | 165° |
| 2026-05-05 21:21 | 45.61187 | 8.72234 | 753 ft | 26 kts | 169° |
| 2026-05-05 21:21 | 45.61005 | 8.72284 | 752 ft | 28 kts | 169° |
| 2026-05-05 21:21 | 45.60811 | 8.72338 | 753 ft | 29 kts | 169° |
| 2026-05-05 21:21 | 45.60661 | 8.72402 | 752 ft | 20 kts | 141° |
| 2026-05-05 21:22 | 45.60632 | 8.72457 | 753 ft | 3 kts | 110° |
| 2026-05-05 21:22 | 45.60627 | 8.72634 | 752 ft | 27 kts | 96° |
| 2026-05-05 21:22 | 45.60607 | 8.72912 | 750 ft | 29 kts | 96° |
| 2026-05-05 21:22 | 45.60592 | 8.73175 | 753 ft | 20 kts | 82° |
| 2026-05-05 21:23 | 45.60692 | 8.73303 | 753 ft | 21 kts | 21° |
| 2026-05-05 21:23 | 45.60814 | 8.73374 | 750 ft | 19 kts | 22° |
| 2026-05-05 21:23 | 45.60930 | 8.73398 | 753 ft | 18 kts | 349° |
| 2026-05-05 21:23 | 45.61057 | 8.73364 | 753 ft | 20 kts | 349° |
| 2026-05-05 21:24 | 45.61197 | 8.73325 | 752 ft | 21 kts | 349° |
| 2026-05-05 21:24 | 45.61236 | 8.73314 | 753 ft | 0 kts | 348° |
| 2026-05-05 21:24 | 45.61267 | 8.73305 | 752 ft | 8 kts | 349° |
| 2026-05-05 21:24 | 45.61368 | 8.73277 | 753 ft | 19 kts | 349° |
| 2026-05-05 21:25 | 45.61489 | 8.73244 | 749 ft | 9 kts | 349° |
| 2026-05-05 21:25 | 45.61555 | 8.73226 | 753 ft | 10 kts | 350° |
| 2026-05-05 21:25 | 45.61603 | 8.73225 | 752 ft | 4 kts | 18° |
| 2026-05-05 21:25 | 45.61615 | 8.73255 | 753 ft | 4 kts | 84° |
| 2026-05-05 21:26 | 45.61626 | 8.73352 | 753 ft | 16 kts | 79° |
| 2026-05-05 21:26 | 45.61627 | 8.73442 | 753 ft | 0 kts | 115° |
| 2026-05-05 21:28 | 45.61619 | 8.73464 | 753 ft | 10 kts | 120° |
| 2026-05-05 21:29 | 45.61593 | 8.73532 | 751 ft | 0 kts | 104° |
| 2026-05-05 21:32 | 45.61591 | 8.73542 | 750 ft | 6 kts | 108° |
| 2026-05-05 21:32 | 45.61584 | 8.73616 | 750 ft | 0 kts | 82° |
| 2026-05-05 21:41 | 45.61590 | 8.73664 | 747 ft | 16 kts | 80° |
| 2026-05-05 21:42 | 45.61681 | 8.73722 | 745 ft | 0 kts | 349° |
| 2026-05-05 21:42 | 45.61730 | 8.73708 | 744 ft | 34 kts | 348° |
| 2026-05-05 21:43 | 45.62219 | 8.73573 | 747 ft | 105 kts | 349° |
| 2026-05-05 21:43 | 45.63127 | 8.73318 | 742 ft | 158 kts | 349° |
| 2026-05-05 21:43 | 45.64263 | 8.73017 | 1264 ft | 167 kts | 353° |
| 2026-05-05 21:43 | 45.65407 | 8.73308 | 1920 ft | 174 kts | 34° |
| 2026-05-05 21:44 | 45.66194 | 8.74677 | 2351 ft | 190 kts | 71° |
| 2026-05-05 21:44 | 45.66757 | 8.76478 | 2842 ft | 207 kts | 53° |
| 2026-05-05 21:44 | 45.67876 | 8.77895 | 3399 ft | 226 kts | 43° |
| 2026-05-05 21:44 | 45.68996 | 8.79626 | 3893 ft | 249 kts | 52° |
| 2026-05-05 21:45 | 45.70116 | 8.81648 | 4576 ft | 265 kts | 53° |
| 2026-05-05 21:45 | 45.71259 | 8.83766 | 5466 ft | 273 kts | 53° |
| 2026-05-05 21:45 | 45.72430 | 8.85953 | 5856 ft | 278 kts | 53° |
| 2026-05-05 21:45 | 45.73589 | 8.88124 | 5978 ft | 278 kts | 53° |
| 2026-05-05 21:46 | 45.74762 | 8.90320 | 6006 ft | 278 kts | 54° |
| 2026-05-05 21:46 | 45.75947 | 8.92545 | 6661 ft | 281 kts | 54° |
| 2026-05-05 21:46 | 45.77139 | 8.94784 | 7585 ft | 285 kts | 53° |
| 2026-05-05 21:46 | 45.78347 | 8.97060 | 8478 ft | 290 kts | 53° |
| 2026-05-05 21:47 | 45.79580 | 8.99389 | 8866 ft | 295 kts | 53° |
| 2026-05-05 21:47 | 45.80824 | 9.01744 | 8980 ft | 295 kts | 53° |
| 2026-05-05 21:47 | 45.82035 | 9.04137 | 9559 ft | 298 kts | 61° |
| 2026-05-05 21:47 | 45.82754 | 9.06927 | 10350 ft | 304 kts | 82° |
| 2026-05-05 21:48 | 45.82848 | 9.10063 | 10643 ft | 326 kts | 92° |
| 2026-05-05 21:48 | 45.82807 | 9.13406 | 11122 ft | 341 kts | 93° |
| 2026-05-05 21:48 | 45.82743 | 9.16844 | 11872 ft | 348 kts | 94° |
| 2026-05-05 21:48 | 45.82679 | 9.20332 | 12641 ft | 353 kts | 93° |
| 2026-05-05 21:49 | 45.82618 | 9.23882 | 13407 ft | 358 kts | 93° |
| 2026-05-05 21:49 | 45.82558 | 9.27480 | 14125 ft | 363 kts | 93° |
| 2026-05-05 21:49 | 45.82500 | 9.31132 | 14727 ft | 369 kts | 94° |
| 2026-05-05 21:49 | 45.82446 | 9.34776 | 14937 ft | 371 kts | 94° |
| 2026-05-05 21:50 | 45.82395 | 9.38476 | 14997 ft | 371 kts | 94° |
| 2026-05-05 21:50 | 45.82344 | 9.42180 | 15005 ft | 371 kts | 94° |
| 2026-05-05 21:50 | 45.82288 | 9.45878 | 15004 ft | 371 kts | 94° |
| 2026-05-05 21:50 | 45.82231 | 9.49573 | 14991 ft | 371 kts | 94° |
| 2026-05-05 21:51 | 45.82173 | 9.53281 | 15006 ft | 372 kts | 94° |
| 2026-05-05 21:51 | 45.82117 | 9.56991 | 14997 ft | 372 kts | 94° |
| 2026-05-05 21:51 | 45.82060 | 9.60701 | 15009 ft | 373 kts | 94° |
| 2026-05-05 21:51 | 45.81999 | 9.64420 | 15013 ft | 372 kts | 94° |
| 2026-05-05 21:52 | 45.81869 | 9.71792 | 15009 ft | 372 kts | 94° |
| 2026-05-05 21:52 | 45.81805 | 9.75499 | 14999 ft | 372 kts | 94° |
| 2026-05-05 21:52 | 45.81739 | 9.79205 | 15006 ft | 372 kts | 94° |
| 2026-05-05 21:53 | 45.81669 | 9.82921 | 15058 ft | 374 kts | 94° |
| 2026-05-05 21:53 | 45.81595 | 9.86664 | 15752 ft | 377 kts | 94° |
| 2026-05-05 21:53 | 45.81519 | 9.90452 | 16395 ft | 383 kts | 95° |
| 2026-05-05 21:53 | 45.81442 | 9.94293 | 17027 ft | 388 kts | 95° |
| 2026-05-05 21:54 | 45.81365 | 9.98188 | 17661 ft | 394 kts | 95° |
| 2026-05-05 21:54 | 45.81286 | 10.02138 | 18248 ft | 398 kts | 95° |
| 2026-05-05 21:54 | 45.81203 | 10.06118 | 18808 ft | 402 kts | 96° |
| 2026-05-05 21:54 | 45.81117 | 10.10151 | 19389 ft | 406 kts | 96° |
| 2026-05-05 21:55 | 45.81032 | 10.14213 | 19979 ft | 409 kts | 96° |
| 2026-05-05 21:55 | 45.80943 | 10.18306 | 20587 ft | 413 kts | 96° |
| 2026-05-05 21:55 | 45.80851 | 10.22446 | 21202 ft | 417 kts | 97° |
| 2026-05-05 21:55 | 45.80757 | 10.26615 | 21759 ft | 420 kts | 97° |
| 2026-05-05 21:56 | 45.80659 | 10.30821 | 22307 ft | 424 kts | 97° |
| 2026-05-05 21:56 | 45.80557 | 10.35070 | 22858 ft | 428 kts | 97° |
| 2026-05-05 21:56 | 45.80568 | 10.39360 | 23361 ft | 435 kts | 90° |
| 2026-05-05 21:56 | 45.81068 | 10.43700 | 23825 ft | 446 kts | 79° |
| 2026-05-05 21:57 | 45.82076 | 10.47880 | 24222 ft | 454 kts | 69° |
| 2026-05-05 21:57 | 45.83444 | 10.52051 | 24652 ft | 459 kts | 67° |
| 2026-05-05 21:57 | 45.84793 | 10.56152 | 25055 ft | 462 kts | 67° |
| 2026-05-05 21:57 | 45.86164 | 10.60341 | 25477 ft | 466 kts | 68° |
| 2026-05-05 21:58 | 45.87542 | 10.64574 | 25858 ft | 470 kts | 68° |
| 2026-05-05 21:58 | 45.88923 | 10.68841 | 26268 ft | 473 kts | 67° |
| 2026-05-05 21:58 | 45.90311 | 10.73141 | 26650 ft | 476 kts | 67° |
| 2026-05-05 21:58 | 45.91710 | 10.77472 | 27073 ft | 478 kts | 67° |
| 2026-05-05 21:59 | 45.93115 | 10.81819 | 27428 ft | 481 kts | 67° |
| 2026-05-05 21:59 | 45.94535 | 10.86210 | 27793 ft | 485 kts | 67° |
| 2026-05-05 21:59 | 45.95958 | 10.90627 | 28157 ft | 488 kts | 67° |
| 2026-05-05 21:59 | 45.97371 | 10.95023 | 28502 ft | 492 kts | 67° |
| 2026-05-05 22:00 | 45.98810 | 10.99511 | 28853 ft | 495 kts | 67° |
| 2026-05-05 22:00 | 46.00255 | 11.04024 | 29199 ft | 498 kts | 67° |
| 2026-05-05 22:00 | 46.01706 | 11.08563 | 29506 ft | 501 kts | 67° |
| 2026-05-05 22:00 | 46.03165 | 11.13133 | 29805 ft | 504 kts | 66° |
| 2026-05-05 22:01 | 46.04633 | 11.17739 | 30144 ft | 506 kts | 66° |
| 2026-05-05 22:01 | 46.06099 | 11.22350 | 30431 ft | 507 kts | 66° |
| 2026-05-05 22:01 | 46.07569 | 11.26975 | 30640 ft | 510 kts | 66° |
| 2026-05-05 22:01 | 46.09047 | 11.31635 | 30891 ft | 512 kts | 66° |
| 2026-05-05 22:02 | 46.10529 | 11.36318 | 31139 ft | 515 kts | 66° |
| 2026-05-05 22:02 | 46.12017 | 11.41029 | 31356 ft | 517 kts | 66° |
| 2026-05-05 22:02 | 46.13509 | 11.45770 | 31573 ft | 519 kts | 66° |
| 2026-05-05 22:02 | 46.15000 | 11.50517 | 31872 ft | 519 kts | 66° |
| 2026-05-05 22:03 | 46.16469 | 11.55206 | 32172 ft | 520 kts | 66° |
| 2026-05-05 22:03 | 46.17964 | 11.59993 | 32494 ft | 520 kts | 67° |
| 2026-05-05 22:03 | 46.19448 | 11.64745 | 32761 ft | 520 kts | 66° |
| 2026-05-05 22:03 | 46.20943 | 11.69534 | 33044 ft | 521 kts | 67° |
| 2026-05-05 22:04 | 46.22429 | 11.74299 | 33366 ft | 521 kts | 67° |
| 2026-05-05 22:04 | 46.23920 | 11.79087 | 33678 ft | 521 kts | 67° |
| 2026-05-05 22:04 | 46.25406 | 11.83875 | 33944 ft | 523 kts | 67° |
| 2026-05-05 22:05 | 46.28333 | 11.93322 | 34023 ft | 513 kts | 67° |
| 2026-05-05 22:05 | 46.31244 | 12.02735 | 34021 ft | 511 kts | 67° |
| 2026-05-05 22:06 | 46.34136 | 12.12150 | 34002 ft | 510 kts | 66° |
| 2026-05-05 22:06 | 46.36982 | 12.21490 | 34011 ft | 509 kts | 66° |
| 2026-05-05 22:07 | 46.39842 | 12.30875 | 33997 ft | 508 kts | 67° |
| 2026-05-05 22:07 | 46.42695 | 12.40255 | 34004 ft | 509 kts | 67° |
| 2026-05-05 22:08 | 46.45537 | 12.49649 | 34004 ft | 509 kts | 67° |
| 2026-05-05 22:08 | 46.48379 | 12.59066 | 33969 ft | 508 kts | 66° |
| 2026-05-05 22:09 | 46.51194 | 12.68411 | 33998 ft | 508 kts | 66° |
| 2026-05-05 22:09 | 46.54019 | 12.77820 | 34008 ft | 508 kts | 66° |
| 2026-05-05 22:10 | 46.56824 | 12.87248 | 34008 ft | 507 kts | 67° |
| 2026-05-05 22:10 | 46.59610 | 12.96683 | 33999 ft | 507 kts | 67° |
| 2026-05-05 22:11 | 46.62397 | 13.06099 | 33970 ft | 505 kts | 66° |
| 2026-05-05 22:11 | 46.65154 | 13.15425 | 33991 ft | 504 kts | 66° |
| 2026-05-05 22:12 | 46.67908 | 13.24789 | 33999 ft | 502 kts | 66° |
| 2026-05-05 22:12 | 46.70861 | 13.34015 | 33998 ft | 501 kts | 62° |
| 2026-05-05 22:13 | 46.74158 | 13.42992 | 33993 ft | 500 kts | 60° |
| 2026-05-05 22:13 | 46.77450 | 13.51851 | 33964 ft | 499 kts | 61° |
| 2026-05-05 22:14 | 46.80655 | 13.60838 | 33976 ft | 498 kts | 61° |
| 2026-05-05 22:14 | 46.83793 | 13.69844 | 33970 ft | 496 kts | 62° |
| 2026-05-05 22:15 | 46.86414 | 13.77362 | 33971 ft | 495 kts | 62° |
| 2026-05-05 22:15 | 46.90044 | 13.87776 | 33952 ft | 494 kts | 62° |
| 2026-05-05 22:16 | 46.92637 | 13.95212 | 33952 ft | 494 kts | 62° |
| 2026-05-05 22:16 | 46.95755 | 14.04159 | 33965 ft | 492 kts | 62° |
| 2026-05-05 22:17 | 46.98844 | 14.13065 | 33964 ft | 488 kts | 62° |
| 2026-05-05 22:17 | 47.01903 | 14.21921 | 33960 ft | 486 kts | 62° |
| 2026-05-05 22:18 | 47.04941 | 14.30768 | 33957 ft | 485 kts | 62° |
| 2026-05-05 22:18 | 47.07968 | 14.39592 | 33945 ft | 484 kts | 62° |
| 2026-05-05 22:19 | 47.10913 | 14.48403 | 33953 ft | 482 kts | 68° |
| 2026-05-05 22:19 | 47.12786 | 14.57813 | 33926 ft | 479 kts | 77° |
| 2026-05-05 22:20 | 47.14414 | 14.67263 | 33933 ft | 476 kts | 77° |
| 2026-05-05 22:20 | 47.16035 | 14.76692 | 33905 ft | 477 kts | 77° |
| 2026-05-05 22:21 | 47.17651 | 14.86158 | 33894 ft | 478 kts | 77° |
| 2026-05-05 22:21 | 47.19265 | 14.95668 | 33708 ft | 480 kts | 77° |
| 2026-05-05 22:21 | 47.20065 | 15.00417 | 32379 ft | 490 kts | 77° |
| 2026-05-05 22:22 | 47.20884 | 15.05311 | 31375 ft | 487 kts | 77° |
| 2026-05-05 22:22 | 47.21687 | 15.10103 | 30324 ft | 477 kts | 77° |
| 2026-05-05 22:22 | 47.22473 | 15.14790 | 29227 ft | 468 kts | 77° |
| 2026-05-05 22:22 | 47.23247 | 15.19421 | 28620 ft | 462 kts | 77° |
| 2026-05-05 22:23 | 47.24006 | 15.23980 | 28029 ft | 456 kts | 77° |
| 2026-05-05 22:23 | 47.24753 | 15.28490 | 27439 ft | 451 kts | 77° |
| 2026-05-05 22:23 | 47.25493 | 15.32965 | 26863 ft | 446 kts | 77° |
| 2026-05-05 22:23 | 47.26221 | 15.37385 | 26308 ft | 442 kts | 77° |
| 2026-05-05 22:24 | 47.26940 | 15.41766 | 25756 ft | 438 kts | 77° |
| 2026-05-05 22:24 | 47.27651 | 15.46102 | 25247 ft | 433 kts | 77° |
| 2026-05-05 22:24 | 47.28347 | 15.50351 | 24723 ft | 429 kts | 77° |
| 2026-05-05 22:24 | 47.29043 | 15.54605 | 24219 ft | 425 kts | 77° |
| 2026-05-05 22:25 | 47.29734 | 15.58836 | 23706 ft | 422 kts | 77° |
| 2026-05-05 22:25 | 47.30417 | 15.63027 | 23124 ft | 420 kts | 77° |
| 2026-05-05 22:25 | 47.31091 | 15.67189 | 22603 ft | 415 kts | 77° |
| 2026-05-05 22:25 | 47.31757 | 15.71316 | 22065 ft | 412 kts | 77° |
| 2026-05-05 22:26 | 47.32417 | 15.75413 | 21538 ft | 409 kts | 78° |
| 2026-05-05 22:26 | 47.33071 | 15.79474 | 21001 ft | 407 kts | 77° |
| 2026-05-05 22:26 | 47.33721 | 15.83528 | 20471 ft | 405 kts | 78° |
| 2026-05-05 22:26 | 47.34365 | 15.87567 | 19924 ft | 404 kts | 78° |
| 2026-05-05 22:27 | 47.34999 | 15.91550 | 19393 ft | 402 kts | 78° |
| 2026-05-05 22:27 | 47.35652 | 15.95557 | 18858 ft | 401 kts | 75° |
| 2026-05-05 22:27 | 47.36728 | 15.99337 | 18319 ft | 400 kts | 59° |
| 2026-05-05 22:27 | 47.38408 | 16.02583 | 17762 ft | 399 kts | 44° |
| 2026-05-05 22:28 | 47.40585 | 16.05034 | 17538 ft | 386 kts | 28° |
| 2026-05-05 22:28 | 47.42991 | 16.06590 | 17401 ft | 373 kts | 17° |
| 2026-05-05 22:28 | 47.45445 | 16.07807 | 17197 ft | 371 kts | 17° |
| 2026-05-05 22:28 | 47.47856 | 16.09009 | 17004 ft | 368 kts | 16° |
| 2026-05-05 22:29 | 47.50281 | 16.10220 | 16813 ft | 367 kts | 16° |
| 2026-05-05 22:29 | 47.52697 | 16.11425 | 16607 ft | 367 kts | 17° |
| 2026-05-05 22:29 | 47.55113 | 16.12629 | 16411 ft | 365 kts | 17° |
| 2026-05-05 22:29 | 47.57519 | 16.13826 | 16212 ft | 364 kts | 17° |
| 2026-05-05 22:30 | 47.59926 | 16.15024 | 16006 ft | 364 kts | 17° |
| 2026-05-05 22:30 | 47.62323 | 16.16220 | 15813 ft | 362 kts | 16° |
| 2026-05-05 22:30 | 47.64711 | 16.17414 | 15623 ft | 363 kts | 17° |
| 2026-05-05 22:30 | 47.67094 | 16.18608 | 15429 ft | 362 kts | 17° |
| 2026-05-05 22:31 | 47.69483 | 16.19807 | 15223 ft | 359 kts | 17° |
| 2026-05-05 22:31 | 47.71858 | 16.20996 | 15030 ft | 360 kts | 17° |
| 2026-05-05 22:31 | 47.74193 | 16.22349 | 14840 ft | 360 kts | 26° |
| 2026-05-05 22:31 | 47.76250 | 16.24351 | 14641 ft | 359 kts | 40° |
| 2026-05-05 22:32 | 47.77988 | 16.27017 | 14455 ft | 359 kts | 53° |
| 2026-05-05 22:32 | 47.79323 | 16.30131 | 14269 ft | 355 kts | 61° |
| 2026-05-05 22:32 | 47.80566 | 16.33315 | 14071 ft | 357 kts | 61° |
| 2026-05-05 22:32 | 47.81811 | 16.36503 | 13894 ft | 356 kts | 61° |
| 2026-05-05 22:33 | 47.83049 | 16.39672 | 13708 ft | 354 kts | 60° |
| 2026-05-05 22:33 | 47.84287 | 16.42845 | 13518 ft | 354 kts | 60° |
| 2026-05-05 22:33 | 47.85517 | 16.46000 | 13326 ft | 351 kts | 61° |
| 2026-05-05 22:33 | 47.86741 | 16.49143 | 13140 ft | 351 kts | 61° |
| 2026-05-05 22:34 | 47.87967 | 16.52300 | 12947 ft | 350 kts | 61° |
| 2026-05-05 22:34 | 47.89183 | 16.55425 | 12746 ft | 348 kts | 60° |
| 2026-05-05 22:34 | 47.90396 | 16.58545 | 12568 ft | 348 kts | 60° |
| 2026-05-05 22:34 | 47.91589 | 16.61622 | 12379 ft | 346 kts | 61° |
| 2026-05-05 22:35 | 47.92785 | 16.64718 | 12194 ft | 345 kts | 61° |
| 2026-05-05 22:35 | 47.93985 | 16.67828 | 12004 ft | 345 kts | 61° |
| 2026-05-05 22:35 | 47.95177 | 16.70922 | 11814 ft | 343 kts | 61° |
| 2026-05-05 22:35 | 47.96364 | 16.73998 | 11623 ft | 343 kts | 61° |
| 2026-05-05 22:36 | 47.97615 | 16.77018 | 11441 ft | 341 kts | 51° |
| 2026-05-05 22:36 | 47.99385 | 16.79319 | 11255 ft | 339 kts | 28° |
| 2026-05-05 22:36 | 48.01595 | 16.80469 | 11072 ft | 336 kts | 6° |
| 2026-05-05 22:36 | 48.03894 | 16.80315 | 10874 ft | 329 kts | 342° |
| 2026-05-05 22:37 | 48.05984 | 16.79021 | 10690 ft | 324 kts | 328° |
| 2026-05-05 22:37 | 48.07996 | 16.77467 | 10501 ft | 324 kts | 330° |
| 2026-05-05 22:37 | 48.09993 | 16.75920 | 10293 ft | 324 kts | 329° |
| 2026-05-05 22:37 | 48.11987 | 16.74377 | 10052 ft | 318 kts | 329° |
| 2026-05-05 22:38 | 48.13901 | 16.72903 | 9895 ft | 307 kts | 329° |
| 2026-05-05 22:38 | 48.15774 | 16.71462 | 9776 ft | 300 kts | 329° |
| 2026-05-05 22:38 | 48.17628 | 16.70033 | 9655 ft | 298 kts | 329° |
| 2026-05-05 22:38 | 48.19467 | 16.68610 | 9525 ft | 297 kts | 329° |
| 2026-05-05 22:39 | 48.21301 | 16.67188 | 9390 ft | 297 kts | 329° |
| 2026-05-05 22:39 | 48.23223 | 16.66028 | 9258 ft | 299 kts | 340° |
| 2026-05-05 22:39 | 48.25235 | 16.65184 | 9127 ft | 300 kts | 341° |
| 2026-05-05 22:39 | 48.27242 | 16.64343 | 9015 ft | 298 kts | 341° |
| 2026-05-05 22:40 | 48.29244 | 16.63504 | 8936 ft | 298 kts | 341° |
| 2026-05-05 22:40 | 48.31235 | 16.62668 | 8799 ft | 296 kts | 340° |
| 2026-05-05 22:40 | 48.33225 | 16.61830 | 8648 ft | 298 kts | 341° |
| 2026-05-05 22:40 | 48.35225 | 16.60987 | 8480 ft | 299 kts | 341° |
| 2026-05-05 22:41 | 48.37224 | 16.60145 | 8325 ft | 298 kts | 342° |
| 2026-05-05 22:41 | 48.39200 | 16.59312 | 8164 ft | 298 kts | 342° |
| 2026-05-05 22:41 | 48.41187 | 16.58471 | 8005 ft | 296 kts | 342° |
| 2026-05-05 22:41 | 48.43138 | 16.57646 | 7870 ft | 286 kts | 342° |
| 2026-05-05 22:42 | 48.45034 | 16.56845 | 7743 ft | 282 kts | 341° |
| 2026-05-05 22:42 | 48.46917 | 16.56049 | 7613 ft | 280 kts | 341° |
| 2026-05-05 22:42 | 48.48791 | 16.55257 | 7432 ft | 279 kts | 341° |
| 2026-05-05 22:42 | 48.50656 | 16.54464 | 7268 ft | 279 kts | 342° |
| 2026-05-05 22:43 | 48.52369 | 16.53203 | 7104 ft | 273 kts | 316° |
| 2026-05-05 22:43 | 48.53390 | 16.50860 | 6940 ft | 270 kts | 285° |
| 2026-05-05 22:43 | 48.53442 | 16.48093 | 6760 ft | 267 kts | 257° |
| 2026-05-05 22:43 | 48.52925 | 16.45393 | 6581 ft | 264 kts | 252° |
| 2026-05-05 22:44 | 48.51978 | 16.43114 | 6407 ft | 255 kts | 223° |
| 2026-05-05 22:44 | 48.50420 | 16.41977 | 6255 ft | 249 kts | 190° |
| 2026-05-05 22:44 | 48.48725 | 16.42263 | 6103 ft | 246 kts | 161° |
| 2026-05-05 22:44 | 48.47150 | 16.43180 | 5956 ft | 241 kts | 165° |
| 2026-05-05 22:45 | 48.45551 | 16.43882 | 5821 ft | 239 kts | 168° |
| 2026-05-05 22:45 | 48.43941 | 16.44451 | 5707 ft | 236 kts | 173° |
| 2026-05-05 22:45 | 48.42329 | 16.44934 | 5604 ft | 237 kts | 169° |
| 2026-05-05 22:45 | 48.40727 | 16.45568 | 5505 ft | 238 kts | 167° |
| 2026-05-05 22:46 | 48.39133 | 16.46252 | 5399 ft | 238 kts | 167° |
| 2026-05-05 22:46 | 48.37562 | 16.46928 | 5301 ft | 237 kts | 167° |
| 2026-05-05 22:46 | 48.35975 | 16.47607 | 5191 ft | 237 kts | 167° |
| 2026-05-05 22:46 | 48.34392 | 16.48283 | 5059 ft | 237 kts | 167° |
| 2026-05-05 22:47 | 48.32808 | 16.48960 | 4791 ft | 237 kts | 168° |
| 2026-05-05 22:47 | 48.31213 | 16.49641 | 4490 ft | 238 kts | 168° |
| 2026-05-05 22:47 | 48.29628 | 16.50317 | 4169 ft | 234 kts | 168° |
| 2026-05-05 22:47 | 48.28089 | 16.50975 | 3862 ft | 224 kts | 168° |
| 2026-05-05 22:48 | 48.26640 | 16.51594 | 3580 ft | 213 kts | 168° |
| 2026-05-05 22:48 | 48.25247 | 16.52187 | 3309 ft | 203 kts | 168° |
| 2026-05-05 22:48 | 48.23928 | 16.52749 | 3082 ft | 190 kts | 168° |
| 2026-05-05 22:48 | 48.22702 | 16.53270 | 2807 ft | 176 kts | 170° |
| 2026-05-05 22:49 | 48.21581 | 16.53748 | 2587 ft | 161 kts | 170° |
| 2026-05-05 22:49 | 48.20576 | 16.54177 | 2401 ft | 140 kts | 171° |
| 2026-05-05 22:49 | 48.19668 | 16.54560 | 2224 ft | 132 kts | 170° |
| 2026-05-05 22:49 | 48.18792 | 16.54930 | 2043 ft | 129 kts | 169° |
| 2026-05-05 22:50 | 48.17927 | 16.55296 | 1868 ft | 129 kts | 168° |
| 2026-05-05 22:50 | 48.17067 | 16.55661 | 1697 ft | 128 kts | 167° |
| 2026-05-05 22:50 | 48.16213 | 16.56023 | 1515 ft | 128 kts | 166° |
| 2026-05-05 22:50 | 48.15351 | 16.56388 | 1354 ft | 129 kts | 167° |
| 2026-05-05 22:51 | 48.14482 | 16.56756 | 1117 ft | 131 kts | 165° |
| 2026-05-05 22:51 | 48.13618 | 16.57121 | 986 ft | 128 kts | 165° |
| 2026-05-05 22:51 | 48.12761 | 16.57482 | 796 ft | 129 kts | 164° |
| 2026-05-05 22:51 | 48.11905 | 16.57847 | 640 ft | 126 kts | 165° |
| 2026-05-05 22:52 | 48.11149 | 16.58163 | 620 ft | 97 kts | 163° |
| 2026-05-05 22:52 | 48.10655 | 16.58376 | 616 ft | 57 kts | 163° |
| 2026-05-05 22:52 | 48.10352 | 16.58473 | 610 ft | 28 kts | 187° |
| 2026-05-05 22:52 | 48.10169 | 16.58412 | 610 ft | 17 kts | 198° |
| 2026-05-05 22:53 | 48.10156 | 16.58310 | 617 ft | 5 kts | 341° |
| 2026-05-05 22:53 | 48.10277 | 16.58258 | 614 ft | 55 kts | 343° |
| 2026-05-05 22:53 | 48.10779 | 16.58047 | 613 ft | 45 kts | 344° |
| 2026-05-05 22:53 | 48.10953 | 16.57940 | 610 ft | 19 kts | 316° |
| 2026-05-05 22:54 | 48.11069 | 16.57783 | 613 ft | 24 kts | 336° |
| 2026-05-05 22:54 | 48.11167 | 16.57689 | 614 ft | 23 kts | 302° |
| 2026-05-05 22:54 | 48.11308 | 16.57251 | 615 ft | 56 kts | 295° |
| 2026-05-05 22:54 | 48.11427 | 16.56897 | 613 ft | 17 kts | 306° |
| 2026-05-05 22:55 | 48.11522 | 16.56912 | 610 ft | 14 kts | 20° |
| 2026-05-05 22:55 | 48.11597 | 16.56865 | 610 ft | 12 kts | 298° |
| 2026-05-05 22:55 | 48.11575 | 16.56816 | 615 ft | 6 kts | 206° |
| 2026-05-05 22:55 | 48.11538 | 16.56789 | 616 ft | 1 kts | 206° |
| 2026-05-05 22:56 | 48.11533 | 16.56786 | 614 ft | 0 kts | 205° |